createdAt,value
2023-02-25T00:00:03.044Z,0
2023-02-25T00:05:03.160Z,0
2023-02-25T00:10:02.816Z,0
2023-02-25T00:15:02.621Z,0
2023-02-25T00:20:02.495Z,0
2023-02-25T00:25:03.265Z,0
2023-02-25T00:30:03.061Z,0
2023-02-25T00:35:03.063Z,0
2023-02-25T00:40:02.844Z,0
2023-02-25T00:45:02.623Z,0
2023-02-25T00:50:02.385Z,0
2023-02-25T00:55:03.492Z,0
2023-02-25T01:00:02.935Z,0
2023-02-25T01:05:02.690Z,0
2023-02-25T01:10:03.343Z,0
2023-02-25T01:15:03.436Z,0
2023-02-25T01:20:02.854Z,0
2023-02-25T01:25:02.578Z,0
2023-02-25T01:30:02.514Z,0
2023-02-25T01:35:02.532Z,0
2023-02-25T01:40:03.505Z,0
2023-02-25T01:45:03.516Z,0
2023-02-25T01:50:02.816Z,0
2023-02-25T01:55:03.155Z,0
2023-02-25T02:00:03.374Z,0
2023-02-25T02:05:03.062Z,0
2023-02-25T02:10:02.812Z,0
2023-02-25T02:15:03.075Z,0
2023-02-25T02:20:02.730Z,0
2023-02-25T02:25:02.578Z,0
2023-02-25T02:30:03.301Z,0
2023-02-25T02:35:02.886Z,0
2023-02-25T02:40:02.629Z,0
2023-02-25T02:45:03.367Z,0
2023-02-25T02:50:02.609Z,0
2023-02-25T02:55:03.326Z,0
2023-02-25T03:00:02.644Z,0
2023-02-25T03:05:02.588Z,0
2023-02-25T03:10:02.361Z,0
2023-02-25T03:15:03.188Z,0
2023-02-25T03:20:02.974Z,0
2023-02-25T03:25:02.813Z,0
2023-02-25T03:30:02.640Z,0
2023-02-25T03:35:02.466Z,0
2023-02-25T03:40:03.000Z,0
2023-02-25T03:45:02.558Z,0
2023-02-25T03:50:03.226Z,0
2023-02-25T03:55:03.836Z,0
2023-02-25T04:00:03.067Z,0
2023-02-25T04:05:02.957Z,0
2023-02-25T04:10:02.823Z,0
2023-02-25T04:15:03.076Z,0
2023-02-25T04:20:02.575Z,0
2023-02-25T04:25:02.404Z,0
2023-02-25T04:30:03.244Z,0
2023-02-25T04:35:03.216Z,0
2023-02-25T04:40:02.814Z,0
2023-02-25T04:45:02.476Z,0
2023-02-25T04:50:03.094Z,0
2023-02-25T04:55:03.333Z,0
2023-02-25T05:00:02.569Z,0
2023-02-25T05:05:03.394Z,0
2023-02-25T05:10:03.051Z,0
2023-02-25T05:15:03.193Z,0
2023-02-25T05:20:03.117Z,0
2023-02-25T05:25:02.736Z,0
2023-02-25T05:30:02.690Z,0
2023-02-25T05:35:03.388Z,0.45
2023-02-25T05:40:02.990Z,1.47
2023-02-25T05:45:02.762Z,4.07
2023-02-25T05:50:02.895Z,11.88
2023-02-25T05:55:02.891Z,15
2023-02-25T06:00:03.383Z,33.33
2023-02-25T06:05:03.318Z,63.33
2023-02-25T06:10:03.044Z,115
2023-02-25T06:15:02.819Z,178.33
2023-02-25T06:20:02.515Z,260
2023-02-25T06:25:03.232Z,355
2023-02-25T06:30:03.212Z,488.33
2023-02-25T06:35:02.811Z,426.67
2023-02-25T06:40:02.506Z,451.67
2023-02-25T06:45:03.287Z,345
2023-02-25T06:50:03.051Z,483.33
2023-02-25T06:55:03.563Z,475
2023-02-25T07:00:03.092Z,493.33
2023-02-25T07:05:02.808Z,556.67
2023-02-25T07:10:02.515Z,653.33
2023-02-25T07:15:03.389Z,786.67
2023-02-25T07:20:03.135Z,916.67
2023-02-25T07:25:03.178Z,1000
2023-02-25T07:30:03.107Z,1041.67
2023-02-25T07:35:02.600Z,1115
2023-02-25T07:40:02.365Z,1480
2023-02-25T07:45:03.124Z,1288.33
2023-02-25T07:50:02.687Z,1885
2023-02-25T07:55:03.365Z,1778.33
2023-02-25T08:00:03.376Z,2326.67
2023-02-25T08:05:03.264Z,1936.67
2023-02-25T08:10:03.195Z,2563.33
2023-02-25T08:15:02.959Z,3065
2023-02-25T08:20:02.879Z,3200
2023-02-25T08:25:02.628Z,3280
2023-02-25T08:30:03.381Z,3403.33
2023-02-25T08:35:03.193Z,3928.33
2023-02-25T08:40:02.900Z,4296.67
2023-02-25T08:45:03.200Z,3851.67
2023-02-25T08:50:02.838Z,4371.67
2023-02-25T08:55:03.548Z,4483.33
2023-02-25T09:00:05.970Z,4413.33
2023-02-25T09:05:02.539Z,3906.67
2023-02-25T09:10:02.537Z,3965
2023-02-25T09:15:02.745Z,3696.67
2023-02-25T09:20:02.460Z,3025
2023-02-25T09:25:03.159Z,2945
2023-02-25T09:30:02.920Z,3090
2023-02-25T09:35:02.874Z,3415
2023-02-25T09:40:02.795Z,3546.67
2023-02-25T09:45:02.594Z,3870
2023-02-25T09:50:03.247Z,4146.67
2023-02-25T09:55:03.546Z,4786.67
2023-02-25T10:00:03.188Z,5568.33
2023-02-25T10:05:02.643Z,4536.67
2023-02-25T10:10:02.349Z,5211.67
2023-02-25T10:15:03.223Z,4988.33
2023-02-25T10:20:03.247Z,5890
2023-02-25T10:25:03.045Z,6398.33
2023-02-25T10:30:02.805Z,6361.67
2023-02-25T10:35:02.522Z,7178.33
2023-02-25T10:40:04.886Z,8108.33
2023-02-25T10:45:03.370Z,8066.67
2023-02-25T10:50:03.097Z,7800
2023-02-25T10:55:03.018Z,8226.67
2023-02-25T11:00:02.462Z,7698.33
2023-02-25T11:05:03.103Z,7505
2023-02-25T11:10:02.903Z,7096.67
2023-02-25T11:15:02.949Z,7650
2023-02-25T11:20:02.574Z,6000
2023-02-25T11:25:03.101Z,5175
2023-02-25T11:30:03.306Z,5611.67
2023-02-25T11:35:03.489Z,5726.67
2023-02-25T11:40:02.876Z,6723.33
2023-02-25T11:45:03.246Z,6880
2023-02-25T11:50:03.113Z,7675
2023-02-25T11:55:03.260Z,8053.33
2023-02-25T12:00:02.520Z,7848.33
2023-02-25T12:05:03.507Z,4733.33
2023-02-25T12:10:03.126Z,2583.33
2023-02-25T12:15:03.043Z,6356.67
2023-02-25T12:20:02.618Z,4611.67
2023-02-25T12:25:03.316Z,7568.33
2023-02-25T12:30:03.237Z,6843.33
2023-02-25T12:35:02.957Z,7313.33
2023-02-25T12:40:02.948Z,6993.33
2023-02-25T12:45:02.743Z,5986.67
2023-02-25T12:50:02.399Z,5003.33
2023-02-25T12:55:03.111Z,4210
2023-02-25T13:00:02.442Z,6613.33
2023-02-25T13:05:03.154Z,2800
2023-02-25T13:10:02.907Z,5045
2023-02-25T13:15:02.649Z,4208.33
2023-02-25T13:20:02.617Z,1723.33
2023-02-25T13:25:02.381Z,1920
2023-02-25T13:30:03.202Z,2041.67
2023-02-25T13:35:03.065Z,5213.33
2023-02-25T13:40:02.876Z,5156.67
2023-02-25T13:45:02.660Z,5211.67
2023-02-25T13:50:02.327Z,5751.67
2023-02-25T13:55:03.740Z,5808.33
2023-02-25T14:00:02.829Z,5028.33
2023-02-25T14:05:02.480Z,1926.67
2023-02-25T14:10:03.179Z,2680
2023-02-25T14:15:03.309Z,3046.67
2023-02-25T14:20:02.995Z,3128.33
2023-02-25T14:25:02.641Z,3341.67
2023-02-25T14:30:02.518Z,5003.33
2023-02-25T14:35:03.151Z,5268.33
2023-02-25T14:40:02.969Z,4498.33
2023-02-25T14:45:02.690Z,4113.33
2023-02-25T14:50:02.399Z,3956.67
2023-02-25T14:55:03.500Z,3851.67
2023-02-25T15:00:03.063Z,2695
2023-02-25T15:05:02.593Z,2465
2023-02-25T15:10:03.289Z,1951.67
2023-02-25T15:15:03.185Z,1545
2023-02-25T15:20:03.103Z,1520
2023-02-25T15:25:02.650Z,1471.67
2023-02-25T15:30:02.517Z,1440
2023-02-25T15:35:03.301Z,751.67
2023-02-25T15:40:02.938Z,303.33
2023-02-25T15:45:02.786Z,718.33
2023-02-25T15:50:03.454Z,1420
2023-02-25T15:55:03.255Z,1231.67
2023-02-25T16:00:02.586Z,908.33
2023-02-25T16:05:03.037Z,700
2023-02-25T16:10:03.028Z,576.67
2023-02-25T16:15:02.990Z,465
2023-02-25T16:20:03.183Z,405
2023-02-25T16:25:02.947Z,358.33
2023-02-25T16:30:02.767Z,268.33
2023-02-25T16:35:02.656Z,198.33
2023-02-25T16:40:02.608Z,138.33
2023-02-25T16:45:02.531Z,85
2023-02-25T16:50:02.424Z,45
2023-02-25T16:55:03.725Z,20
2023-02-25T17:00:02.825Z,5
2023-02-25T17:05:02.440Z,0
2023-02-25T17:10:03.222Z,0
2023-02-25T17:15:03.502Z,0
2023-02-25T17:20:03.326Z,0
2023-02-25T17:25:03.037Z,0
2023-02-25T17:30:02.587Z,0
2023-02-25T17:35:03.208Z,0
2023-02-25T17:40:03.001Z,0
2023-02-25T17:45:02.732Z,0
2023-02-25T17:50:02.413Z,0
2023-02-25T17:55:03.783Z,0
2023-02-25T18:00:02.881Z,0
2023-02-25T18:05:02.498Z,0
2023-02-25T18:10:02.357Z,0
2023-02-25T18:15:03.130Z,0
2023-02-25T18:20:02.928Z,0
2023-02-25T18:25:02.803Z,0
2023-02-25T18:30:02.773Z,0
2023-02-25T18:35:03.242Z,0
2023-02-25T18:40:03.168Z,0
2023-02-25T18:45:02.926Z,0
2023-02-25T18:50:02.904Z,0
2023-02-25T18:55:03.471Z,0
2023-02-25T19:00:02.819Z,0
2023-02-25T19:05:02.542Z,0
2023-02-25T19:10:02.444Z,0
2023-02-25T19:15:02.900Z,0
2023-02-25T19:20:02.472Z,0
2023-02-25T19:25:03.327Z,0
2023-02-25T19:30:03.024Z,0
2023-02-25T19:35:03.069Z,0
2023-02-25T19:40:02.762Z,0
2023-02-25T19:45:02.434Z,0
2023-02-25T19:50:03.154Z,0
2023-02-25T19:55:03.501Z,0
2023-02-25T20:00:03.008Z,0
2023-02-25T20:05:02.890Z,0
2023-02-25T20:10:02.663Z,0
2023-02-25T20:15:02.465Z,0
2023-02-25T20:20:03.167Z,0
2023-02-25T20:25:03.258Z,0
2023-02-25T20:30:02.932Z,0
2023-02-25T20:35:02.483Z,0
2023-02-25T20:40:03.187Z,0
2023-02-25T20:45:03.266Z,0
2023-02-25T20:50:03.268Z,0
2023-02-25T20:55:06.919Z,0
2023-02-25T21:00:02.991Z,0
2023-02-25T21:05:02.568Z,0
2023-02-25T21:10:02.561Z,0
2023-02-25T21:15:02.456Z,0
2023-02-25T21:20:03.174Z,0
2023-02-25T21:25:02.817Z,0
2023-02-25T21:30:02.947Z,0
2023-02-25T21:35:02.479Z,0
2023-02-25T21:40:03.186Z,0
2023-02-25T21:45:02.431Z,0
2023-02-25T21:50:03.223Z,0
2023-02-25T21:55:03.740Z,0
2023-02-25T22:00:03.031Z,0
2023-02-25T22:05:02.899Z,0
2023-02-25T22:10:02.809Z,0
2023-02-25T22:15:02.604Z,0
2023-02-25T22:20:02.383Z,0
2023-02-25T22:25:03.141Z,0
2023-02-25T22:30:03.238Z,0
2023-02-25T22:35:02.819Z,0
2023-02-25T22:40:02.831Z,0
2023-02-25T22:45:02.621Z,0
2023-02-25T22:50:02.387Z,0
2023-02-25T22:55:03.681Z,0
2023-02-25T23:00:03.007Z,0
2023-02-25T23:05:02.855Z,0
2023-02-25T23:10:02.703Z,0
2023-02-25T23:15:02.620Z,0
2023-02-25T23:20:03.226Z,0
2023-02-25T23:25:02.891Z,0
2023-02-25T23:30:02.904Z,0
2023-02-25T23:35:02.654Z,0
2023-02-25T23:40:02.477Z,0
2023-02-25T23:45:03.309Z,0
2023-02-25T23:50:03.072Z,0
2023-02-25T23:55:03.387Z,0
